Time;durP1;ratioP1;P1;durP2;ratioP2;P2;SDS_P1;SDS_P2;PMS_P1;PMS_P2;Temp;Humidity;BMP_temperature;BMP_pressure;BME280_temperature;BME280_humidity;BME280_pressure;Samples;Min_cycle;Max_cycle;Signal;HPM_P1;HPM_P2
2023/06/12 00:01:03;;;;;;;8.40;3.10;;;;;;;-128.00;-1.00;-1.00;106492;1254;1012778;-68
2023/06/12 00:03:50;;;;;;;8.50;2.80;;;;;;;-128.00;-1.00;-1.00;106611;1254;1013619;-67
2023/06/12 00:06:37;;;;;;;7.20;2.90;;;;;;;-128.00;-1.00;-1.00;106679;1254;1009490;-68
2023/06/12 00:09:23;;;;;;;6.90;2.90;;;;;;;-128.00;-1.00;-1.00;106509;1254;1010625;-69
2023/06/12 00:12:10;;;;;;;8.80;3.00;;;;;;;-128.00;-1.00;-1.00;106523;1254;1011969;-69
2023/06/12 00:14:59;;;;;;;10.10;2.80;;;;;;;-128.00;-1.00;-1.00;106491;1254;1011772;-67
2023/06/12 00:17:45;;;;;;;8.30;3.00;;;;;;;-128.00;-1.00;-1.00;106558;1254;1012548;-69
2023/06/12 00:20:32;;;;;;;7.90;3.20;;;;;;;-128.00;-1.00;-1.00;106635;1254;1009591;-69
2023/06/12 00:23:19;;;;;;;9.50;2.80;;;;;;;-128.00;-1.00;-1.00;106432;1255;1011240;-69
2023/06/12 00:26:06;;;;;;;10.30;3.10;;;;;;;-128.00;-1.00;-1.00;106521;1254;1012462;-71
2023/06/12 00:28:52;;;;;;;8.40;2.80;;;;;;;-128.00;-1.00;-1.00;106591;1256;1012109;-68
2023/06/12 00:31:39;;;;;;;8.10;2.90;;;;;;;-128.00;-1.00;-1.00;106488;1254;1012722;-69
2023/06/12 00:34:26;;;;;;;8.30;2.90;;;;;;;-128.00;-1.00;-1.00;106442;1254;1009964;-67
2023/06/12 00:37:14;;;;;;;7.30;2.60;;;;;;;-128.00;-1.00;-1.00;106537;1254;1011263;-69
2023/06/12 00:40:00;;;;;;;8.10;3.00;;;;;;;-128.00;-1.00;-1.00;106526;1254;1012857;-69
2023/06/12 00:42:50;;;;;;;8.00;3.00;;;;;;;-128.00;-1.00;-1.00;106625;1254;1012003;-68
2023/06/12 00:45:38;;;;;;;8.50;2.80;;;;;;;-128.00;-1.00;-1.00;106595;1258;1012060;-68
2023/06/12 00:48:25;;;;;;;7.50;2.60;;;;;;;-128.00;-1.00;-1.00;106479;1254;1009626;-69
2023/06/12 00:51:12;;;;;;;8.20;2.50;;;;;;;-128.00;-1.00;-1.00;106429;1254;1011404;-68
2023/06/12 00:54:00;;;;;;;8.60;2.70;;;;;;;-128.00;-1.00;-1.00;106554;1254;1011859;-68
2023/06/12 00:56:47;;;;;;;8.30;3.00;;;;;;;-128.00;-1.00;-1.00;106507;1254;1012191;-70
2023/06/12 00:59:35;;;;;;;8.10;2.80;;;;;;;-128.00;-1.00;-1.00;106495;1254;1014012;-68
2023/06/12 01:02:23;;;;;;;7.80;2.60;;;;;;;-128.00;-1.00;-1.00;106462;1254;1009477;-70
2023/06/12 01:05:14;;;;;;;7.60;3.10;;;;;;;-128.00;-1.00;-1.00;106444;1254;1010926;-69
2023/06/12 01:08:34;;;;;;;11.70;3.20;;;;;;;-128.00;-1.00;-1.00;106565;1257;1013296;-70
2023/06/12 01:11:23;;;;;;;7.40;2.80;;;;;;;-128.00;-1.00;-1.00;106621;1254;1012969;-67
2023/06/12 01:14:16;;;;;;;8.10;2.60;;;;;;;-128.00;-1.00;-1.00;106567;1254;1012994;-69
2023/06/12 01:17:04;;;;;;;9.00;2.80;;;;;;;-128.00;-1.00;-1.00;106511;1254;1008935;-68
2023/06/12 01:19:51;;;;;;;8.50;2.70;;;;;;;-128.00;-1.00;-1.00;106500;1254;1011163;-71
2023/06/12 01:23:01;;;;;;;6.70;2.90;;;;;;;-128.00;-1.00;-1.00;106381;1254;1012279;-70
2023/06/12 01:26:12;;;;;;;7.80;3.20;;;;;;;-128.00;-1.00;-1.00;106542;1254;1012232;-70
2023/06/12 01:29:14;;;;;;;7.80;2.90;;;;;;;-128.00;-1.00;-1.00;106649;1254;1012545;-69
2023/06/12 01:32:15;;;;;;;8.60;3.00;;;;;;;-128.00;-1.00;-1.00;106709;1254;1009253;-69
2023/06/12 01:35:11;;;;;;;8.50;2.80;;;;;;;-128.00;-1.00;-1.00;106499;1254;1011173;-68
2023/06/12 01:38:16;;;;;;;9.60;3.40;;;;;;;-128.00;-1.00;-1.00;106450;1254;1012664;-73
2023/06/12 01:41:06;;;;;;;7.50;3.00;;;;;;;-128.00;-1.00;-1.00;106558;1254;1012321;-70
2023/06/12 01:43:54;;;;;;;10.20;2.40;;;;;;;-128.00;-1.00;-1.00;106594;1254;1012639;-68
2023/06/12 01:46:40;;;;;;;7.70;2.70;;;;;;;-128.00;-1.00;-1.00;106571;1254;1009715;-69
2023/06/12 01:49:27;;;;;;;7.10;3.00;;;;;;;-128.00;-1.00;-1.00;106525;1254;1010554;-67
2023/06/12 01:52:14;;;;;;;9.30;2.90;;;;;;;-128.00;-1.00;-1.00;106436;1254;1012463;-69
2023/06/12 01:55:02;;;;;;;7.60;2.80;;;;;;;-128.00;-1.00;-1.00;106445;1263;1012841;-69
2023/06/12 01:57:50;;;;;;;7.80;2.80;;;;;;;-128.00;-1.00;-1.00;106506;1254;1012765;-69
2023/06/12 02:00:40;;;;;;;7.90;2.70;;;;;;;-128.00;-1.00;-1.00;106457;1254;1010005;-68
2023/06/12 02:03:30;;;;;;;9.50;3.20;;;;;;;-128.00;-1.00;-1.00;106466;1254;1010693;-69
2023/06/12 02:06:17;;;;;;;7.80;3.00;;;;;;;-128.00;-1.00;-1.00;106567;1254;1011988;-70
2023/06/12 02:09:05;;;;;;;7.90;3.00;;;;;;;-128.00;-1.00;-1.00;106397;1254;1012483;-70
2023/06/12 02:11:52;;;;;;;8.20;2.80;;;;;;;-128.00;-1.00;-1.00;106436;1254;1013561;-69
2023/06/12 02:14:41;;;;;;;9.90;3.20;;;;;;;-128.00;-1.00;-1.00;106486;1254;1009629;-67
2023/06/12 02:17:28;;;;;;;7.70;2.80;;;;;;;-128.00;-1.00;-1.00;106461;1254;1010814;-67
2023/06/12 02:20:14;;;;;;;7.80;2.80;;;;;;;-128.00;-1.00;-1.00;106610;1254;1012262;-70
2023/06/12 02:23:03;;;;;;;9.60;3.10;;;;;;;-128.00;-1.00;-1.00;106518;1254;1012355;-70
2023/06/12 02:25:51;;;;;;;9.70;3.10;;;;;;;-128.00;-1.00;-1.00;106466;1254;1012692;-71
2023/06/12 02:28:42;;;;;;;7.60;3.00;;;;;;;-128.00;-1.00;-1.00;106463;1254;1009196;-72
2023/06/12 02:31:28;;;;;;;8.20;3.30;;;;;;;-128.00;-1.00;-1.00;106439;1254;1011992;-70
2023/06/12 02:34:16;;;;;;;8.10;3.40;;;;;;;-128.00;-1.00;-1.00;106465;1254;1012831;-70
2023/06/12 02:37:10;;;;;;;8.30;2.90;;;;;;;-128.00;-1.00;-1.00;106449;1254;1012398;-68
2023/06/12 02:40:00;;;;;;;8.30;3.10;;;;;;;-128.00;-1.00;-1.00;106511;1254;1013007;-69
2023/06/12 02:42:48;;;;;;;8.50;3.00;;;;;;;-128.00;-1.00;-1.00;106410;1254;1010643;-68
2023/06/12 02:45:35;;;;;;;7.60;2.80;;;;;;;-128.00;-1.00;-1.00;106503;1254;1011436;-68
2023/06/12 02:48:23;;;;;;;9.40;3.50;;;;;;;-128.00;-1.00;-1.00;106553;1254;1012834;-69
2023/06/12 02:51:10;;;;;;;8.70;3.20;;;;;;;-128.00;-1.00;-1.00;106583;1254;1012422;-69
2023/06/12 02:53:59;;;;;;;9.20;3.50;;;;;;;-128.00;-1.00;-1.00;106538;1254;1013074;-70
2023/06/12 02:56:52;;;;;;;8.80;2.80;;;;;;;-128.00;-1.00;-1.00;106367;1256;1010196;-70
2023/06/12 02:59:40;;;;;;;9.60;3.60;;;;;;;-128.00;-1.00;-1.00;106518;1254;1010655;-67
2023/06/12 03:02:31;;;;;;;11.10;4.50;;;;;;;-128.00;-1.00;-1.00;106554;1254;1012288;-69
2023/06/12 03:05:20;;;;;;;10.50;3.80;;;;;;;-128.00;-1.00;-1.00;106448;1255;1012942;-68
2023/06/12 03:08:08;;;;;;;11.70;3.50;;;;;;;-128.00;-1.00;-1.00;106552;1254;1012413;-68
2023/06/12 03:10:55;;;;;;;10.40;3.60;;;;;;;-128.00;-1.00;-1.00;106482;1254;1010473;-71
2023/06/12 03:13:43;;;;;;;13.00;3.30;;;;;;;-128.00;-1.00;-1.00;106410;1256;1011000;-68
2023/06/12 03:16:31;;;;;;;9.60;3.60;;;;;;;-128.00;-1.00;-1.00;106539;1254;1012372;-68
2023/06/12 03:19:22;;;;;;;8.10;3.10;;;;;;;-128.00;-1.00;-1.00;106462;1254;1012294;-72
2023/06/12 03:22:09;;;;;;;9.20;3.50;;;;;;;-128.00;-1.00;-1.00;106463;1254;1012956;-69
2023/06/12 03:24:58;;;;;;;10.00;3.70;;;;;;;-128.00;-1.00;-1.00;106514;1254;1009362;-68
2023/06/12 03:27:46;;;;;;;9.60;3.80;;;;;;;-128.00;-1.00;-1.00;106450;1255;1011055;-69
2023/06/12 03:30:32;;;;;;;9.20;3.80;;;;;;;-128.00;-1.00;-1.00;106524;1254;1012731;-66
2023/06/12 03:33:19;;;;;;;10.10;4.20;;;;;;;-128.00;-1.00;-1.00;106534;1257;1012086;-68
2023/06/12 03:36:07;;;;;;;9.30;3.50;;;;;;;-128.00;-1.00;-1.00;106498;1254;1012723;-68
2023/06/12 03:38:54;;;;;;;11.10;3.50;;;;;;;-128.00;-1.00;-1.00;106550;1254;1010469;-69
2023/06/12 03:41:56;;;;;;;8.80;3.80;;;;;;;-128.00;-1.00;-1.00;106322;1254;1011004;-70
2023/06/12 03:44:49;;;;;;;9.40;3.80;;;;;;;-128.00;-1.00;-1.00;106564;1254;1012967;-70
2023/06/12 03:47:39;;;;;;;10.30;3.70;;;;;;;-128.00;-1.00;-1.00;106498;1256;1013149;-69
2023/06/12 03:50:27;;;;;;;9.40;3.60;;;;;;;-128.00;-1.00;-1.00;106464;1254;1013482;-68
2023/06/12 03:53:15;;;;;;;9.40;3.10;;;;;;;-128.00;-1.00;-1.00;106545;1254;1009922;-69
2023/06/12 03:56:02;;;;;;;8.90;3.50;;;;;;;-128.00;-1.00;-1.00;106534;1254;1010502;-67
2023/06/12 03:58:49;;;;;;;11.10;3.60;;;;;;;-128.00;-1.00;-1.00;106444;1254;1012918;-70
2023/06/12 04:01:36;;;;;;;10.40;4.10;;;;;;;-128.00;-1.00;-1.00;106620;1255;1012380;-69
2023/06/12 04:04:22;;;;;;;8.00;3.20;;;;;;;-128.00;-1.00;-1.00;106605;1254;1011840;-68
2023/06/12 04:07:13;;;;;;;8.30;3.10;;;;;;;-128.00;-1.00;-1.00;106576;1254;1009559;-69
2023/06/12 04:09:59;;;;;;;10.20;3.00;;;;;;;-128.00;-1.00;-1.00;106566;1254;1011038;-71
2023/06/12 04:12:46;;;;;;;9.10;3.40;;;;;;;-128.00;-1.00;-1.00;106461;1255;1013073;-71
2023/06/12 04:15:33;;;;;;;9.70;3.50;;;;;;;-128.00;-1.00;-1.00;106493;1254;1012038;-71
2023/06/12 04:18:21;;;;;;;10.80;3.40;;;;;;;-128.00;-1.00;-1.00;106425;1254;1012323;-71
2023/06/12 04:21:07;;;;;;;9.10;3.20;;;;;;;-128.00;-1.00;-1.00;106459;1254;1009535;-70
2023/06/12 04:23:54;;;;;;;10.40;3.60;;;;;;;-128.00;-1.00;-1.00;106625;1254;1011427;-71
2023/06/12 04:26:46;;;;;;;10.60;4.00;;;;;;;-128.00;-1.00;-1.00;106771;1254;1012875;-71
2023/06/12 04:29:37;;;;;;;10.70;4.20;;;;;;;-128.00;-1.00;-1.00;106515;1257;1012654;-70
2023/06/12 04:32:24;;;;;;;10.00;3.60;;;;;;;-128.00;-1.00;-1.00;106466;1254;1013398;-73
2023/06/12 04:35:12;;;;;;;10.60;3.60;;;;;;;-128.00;-1.00;-1.00;106402;1254;1009623;-72
2023/06/12 04:37:59;;;;;;;10.00;3.20;;;;;;;-128.00;-1.00;-1.00;106495;1254;1010466;-71
2023/06/12 04:40:46;;;;;;;10.80;4.30;;;;;;;-128.00;-1.00;-1.00;106496;1254;1012522;-72
2023/06/12 04:43:34;;;;;;;9.60;3.80;;;;;;;-128.00;-1.00;-1.00;106464;1254;1012337;-70
2023/06/12 04:46:21;;;;;;;11.80;3.70;;;;;;;-128.00;-1.00;-1.00;106525;1254;1012228;-72
2023/06/12 04:49:08;;;;;;;7.20;3.20;;;;;;;-128.00;-1.00;-1.00;106477;1256;1009786;-69
2023/06/12 04:51:58;;;;;;;19.90;9.70;;;;;;;-128.00;-1.00;-1.00;106456;1254;1011172;-77
2023/06/12 04:54:45;;;;;;;10.00;3.60;;;;;;;-128.00;-1.00;-1.00;106503;1254;1013894;-72
2023/06/12 04:57:32;;;;;;;16.50;10.50;;;;;;;-128.00;-1.00;-1.00;106516;1254;1012668;-76
2023/06/12 05:00:21;;;;;;;11.50;5.20;;;;;;;-128.00;-1.00;-1.00;106501;1254;1012589;-77
2023/06/12 05:03:08;;;;;;;9.60;3.10;;;;;;;-128.00;-1.00;-1.00;106508;1254;1009777;-78
2023/06/12 05:05:55;;;;;;;11.50;5.20;;;;;;;-128.00;-1.00;-1.00;106626;1254;1011237;-76
2023/06/12 05:08:43;;;;;;;8.00;3.80;;;;;;;-128.00;-1.00;-1.00;106378;1255;1013060;-76
2023/06/12 05:11:30;;;;;;;10.50;3.30;;;;;;;-128.00;-1.00;-1.00;106438;1256;1012705;-78
2023/06/12 05:14:17;;;;;;;9.60;2.90;;;;;;;-128.00;-1.00;-1.00;106271;1257;1014256;-75
2023/06/12 05:17:04;;;;;;;12.70;6.70;;;;;;;-128.00;-1.00;-1.00;106315;1257;1010469;-76
2023/06/12 05:19:51;;;;;;;11.40;3.90;;;;;;;-128.00;-1.00;-1.00;106291;1258;1010991;-78
2023/06/12 05:22:40;;;;;;;15.00;6.90;;;;;;;-128.00;-1.00;-1.00;106165;1261;1013741;-72
2023/06/12 05:25:27;;;;;;;7.80;2.50;;;;;;;-128.00;-1.00;-1.00;106000;1261;1012173;-76
2023/06/12 05:28:15;;;;;;;12.30;7.20;;;;;;;-128.00;-1.00;-1.00;106173;1261;1012361;-74
2023/06/12 05:31:04;;;;;;;10.40;2.60;;;;;;;-128.00;-1.00;-1.00;106105;1262;1009299;-75
2023/06/12 05:33:52;;;;;;;15.10;8.90;;;;;;;-128.00;-1.00;-1.00;106161;1261;1010435;-76
2023/06/12 05:36:38;;;;;;;11.60;5.00;;;;;;;-128.00;-1.00;-1.00;106049;1262;1012942;-76
2023/06/12 05:39:25;;;;;;;10.80;2.90;;;;;;;-128.00;-1.00;-1.00;106121;1261;1012922;-75
2023/06/12 05:42:13;;;;;;;9.30;2.80;;;;;;;-128.00;-1.00;-1.00;106150;1262;1012698;-75
2023/06/12 05:45:00;;;;;;;8.40;2.20;;;;;;;-128.00;-1.00;-1.00;106277;1259;1010140;-79
2023/06/12 05:47:46;;;;;;;10.50;2.20;;;;;;;-128.00;-1.00;-1.00;106217;1259;1011322;-77
2023/06/12 05:50:37;;;;;;;6.80;2.30;;;;;;;-128.00;-1.00;-1.00;106228;1259;1013460;-76
2023/06/12 05:53:26;;;;;;;9.70;2.60;;;;;;;-128.00;-1.00;-1.00;106443;1254;1012479;-76
2023/06/12 05:56:14;;;;;;;10.40;2.80;;;;;;;-128.00;-1.00;-1.00;106548;1254;1013435;-76
2023/06/12 05:59:00;;;;;;;11.60;3.20;;;;;;;-128.00;-1.00;-1.00;106503;1254;1010215;-73
2023/06/12 06:01:49;;;;;;;15.20;2.70;;;;;;;-128.00;-1.00;-1.00;106423;1254;1010408;-74
2023/06/12 06:04:37;;;;;;;7.90;2.20;;;;;;;-128.00;-1.00;-1.00;106432;1254;1012528;-76
2023/06/12 06:07:32;;;;;;;8.10;2.00;;;;;;;-128.00;-1.00;-1.00;106804;1254;1013248;-77
2023/06/12 06:10:20;;;;;;;7.20;2.00;;;;;;;-128.00;-1.00;-1.00;106578;1254;1012499;-76
2023/06/12 06:13:08;;;;;;;7.60;2.50;;;;;;;-128.00;-1.00;-1.00;106528;1254;1010762;-75
2023/06/12 06:15:54;;;;;;;10.20;2.40;;;;;;;-128.00;-1.00;-1.00;106541;1254;1010407;-76
2023/06/12 06:18:41;;;;;;;9.70;2.60;;;;;;;-128.00;-1.00;-1.00;106525;1254;1013200;-80
2023/06/12 06:21:31;;;;;;;9.00;2.10;;;;;;;-128.00;-1.00;-1.00;106333;1258;1013749;-80
2023/06/12 06:24:18;;;;;;;8.10;2.00;;;;;;;-128.00;-1.00;-1.00;106262;1258;1013507;-78
2023/06/12 06:27:07;;;;;;;6.30;1.90;;;;;;;-128.00;-1.00;-1.00;106184;1258;1010404;-74
2023/06/12 06:29:55;;;;;;;8.20;2.00;;;;;;;-128.00;-1.00;-1.00;106268;1259;1011466;-71
2023/06/12 06:32:42;;;;;;;8.00;2.30;;;;;;;-128.00;-1.00;-1.00;106219;1259;1012265;-76
2023/06/12 06:35:29;;;;;;;10.70;2.60;;;;;;;-128.00;-1.00;-1.00;106274;1259;1013151;-76
2023/06/12 06:38:21;;;;;;;8.90;2.40;;;;;;;-128.00;-1.00;-1.00;106316;1258;1013441;-74
2023/06/12 06:41:08;;;;;;;8.10;1.90;;;;;;;-128.00;-1.00;-1.00;106356;1258;1009729;-75
2023/06/12 06:43:56;;;;;;;8.90;2.00;;;;;;;-128.00;-1.00;-1.00;106238;1258;1010669;-75
2023/06/12 06:46:45;;;;;;;8.20;1.90;;;;;;;-128.00;-1.00;-1.00;106306;1258;1012376;-73
2023/06/12 06:49:32;;;;;;;6.40;2.00;;;;;;;-128.00;-1.00;-1.00;106301;1258;1013002;-77
2023/06/12 06:52:22;;;;;;;9.10;1.70;;;;;;;-128.00;-1.00;-1.00;106467;1255;1012718;-78
2023/06/12 06:55:09;;;;;;;9.00;2.10;;;;;;;-128.00;-1.00;-1.00;106524;1256;1009454;-75
2023/06/12 06:57:57;;;;;;;7.30;2.20;;;;;;;-128.00;-1.00;-1.00;106440;1254;1010917;-79
2023/06/12 07:00:46;;;;;;;9.70;2.10;;;;;;;-128.00;-1.00;-1.00;106560;1254;1013409;-79
2023/06/12 07:03:33;;;;;;;11.40;2.00;;;;;;;-128.00;-1.00;-1.00;106655;1254;1012260;-75
2023/06/12 07:06:21;;;;;;;6.40;1.90;;;;;;;-128.00;-1.00;-1.00;106507;1254;1012693;-73
2023/06/12 07:09:08;;;;;;;8.10;2.00;;;;;;;-128.00;-1.00;-1.00;106607;1254;1010036;-72
2023/06/12 07:11:55;;;;;;;6.90;2.10;;;;;;;-128.00;-1.00;-1.00;106491;1254;1011115;-75
2023/06/12 07:14:42;;;;;;;7.10;2.00;;;;;;;-128.00;-1.00;-1.00;106749;1254;1013302;-77
2023/06/12 07:17:29;;;;;;;12.10;1.80;;;;;;;-128.00;-1.00;-1.00;106444;1254;1011970;-76
2023/06/12 07:20:16;;;;;;;6.90;1.80;;;;;;;-128.00;-1.00;-1.00;106443;1254;1012283;-79
2023/06/12 07:23:02;;;;;;;7.00;1.70;;;;;;;-128.00;-1.00;-1.00;106504;1254;1009603;-77
2023/06/12 07:25:49;;;;;;;7.00;1.70;;;;;;;-128.00;-1.00;-1.00;106676;1254;1011125;-77
2023/06/12 07:28:36;;;;;;;8.30;2.00;;;;;;;-128.00;-1.00;-1.00;106557;1254;1011996;-74
2023/06/12 07:31:23;;;;;;;8.50;2.00;;;;;;;-128.00;-1.00;-1.00;106174;1260;1011854;-76
2023/06/12 07:34:10;;;;;;;6.50;1.60;;;;;;;-128.00;-1.00;-1.00;106143;1260;1012895;-79
2023/06/12 07:36:58;;;;;;;8.30;2.10;;;;;;;-128.00;-1.00;-1.00;106220;1260;1008972;-77
2023/06/12 07:39:45;;;;;;;8.60;2.20;;;;;;;-128.00;-1.00;-1.00;106206;1260;1011333;-76
2023/06/12 07:42:33;;;;;;;8.80;1.90;;;;;;;-128.00;-1.00;-1.00;106135;1261;1011851;-75
2023/06/12 07:45:20;;;;;;;6.90;1.90;;;;;;;-128.00;-1.00;-1.00;106162;1260;1012802;-77
2023/06/12 07:48:07;;;;;;;8.00;1.80;;;;;;;-128.00;-1.00;-1.00;106133;1260;1013407;-76
2023/06/12 07:50:56;;;;;;;8.50;1.90;;;;;;;-128.00;-1.00;-1.00;106122;1260;1010622;-76
2023/06/12 07:53:43;;;;;;;7.40;1.90;;;;;;;-128.00;-1.00;-1.00;106121;1260;1011205;-77
2023/06/12 07:56:35;;;;;;;7.40;1.80;;;;;;;-128.00;-1.00;-1.00;106213;1263;1012589;-75
2023/06/12 07:59:23;;;;;;;7.40;1.70;;;;;;;-128.00;-1.00;-1.00;106405;1259;1012897;-78
2023/06/12 08:02:14;;;;;;;6.20;1.60;;;;;;;-128.00;-1.00;-1.00;106389;1257;1013331;-74
2023/06/12 08:05:03;;;;;;;6.60;1.50;;;;;;;-128.00;-1.00;-1.00;106387;1257;1009175;-76
2023/06/12 08:07:50;;;;;;;7.80;1.90;;;;;;;-128.00;-1.00;-1.00;106372;1257;1011337;-76
2023/06/12 08:10:37;;;;;;;8.30;1.70;;;;;;;-128.00;-1.00;-1.00;106283;1257;1012512;-77
2023/06/12 08:13:27;;;;;;;6.40;1.70;;;;;;;-128.00;-1.00;-1.00;106304;1257;1012607;-80
2023/06/12 08:16:20;;;;;;;9.60;1.70;;;;;;;-128.00;-1.00;-1.00;106438;1257;1013129;-76
2023/06/12 08:19:08;;;;;;;8.50;2.30;;;;;;;-128.00;-1.00;-1.00;106349;1257;1009750;-75
2023/06/12 08:21:55;;;;;;;7.60;1.80;;;;;;;-128.00;-1.00;-1.00;106380;1257;1011454;-77
2023/06/12 08:24:46;;;;;;;8.20;1.80;;;;;;;-128.00;-1.00;-1.00;106367;1259;1013431;-76
2023/06/12 08:27:33;;;;;;;7.50;1.80;;;;;;;-128.00;-1.00;-1.00;106453;1259;1012164;-79
2023/06/12 08:30:20;;;;;;;7.10;1.80;;;;;;;-128.00;-1.00;-1.00;106396;1257;1012788;-74
2023/06/12 08:33:07;;;;;;;7.60;1.70;;;;;;;-128.00;-1.00;-1.00;106461;1254;1010087;-76
2023/06/12 08:35:55;;;;;;;8.00;1.80;;;;;;;-128.00;-1.00;-1.00;106536;1254;1010519;-76
2023/06/12 08:38:41;;;;;;;7.20;1.70;;;;;;;-128.00;-1.00;-1.00;106510;1254;1011766;-73
2023/06/12 08:41:32;;;;;;;7.50;1.80;;;;;;;-128.00;-1.00;-1.00;106467;1254;1011752;-74
2023/06/12 08:44:23;;;;;;;8.90;1.80;;;;;;;-128.00;-1.00;-1.00;106533;1254;1012768;-76
2023/06/12 08:47:13;;;;;;;9.30;1.50;;;;;;;-128.00;-1.00;-1.00;106542;1254;1009728;-78
2023/06/12 08:49:59;;;;;;;11.70;2.20;;;;;;;-128.00;-1.00;-1.00;106493;1254;1010753;-76
2023/06/12 08:52:48;;;;;;;7.60;1.90;;;;;;;-128.00;-1.00;-1.00;106522;1254;1013898;-75
2023/06/12 08:55:39;;;;;;;6.90;1.70;;;;;;;-128.00;-1.00;-1.00;106526;1254;1013125;-77
2023/06/12 08:58:26;;;;;;;9.70;6.30;;;;;;;-128.00;-1.00;-1.00;106457;1254;1013239;-77
2023/06/12 09:01:14;;;;;;;9.80;2.90;;;;;;;-128.00;-1.00;-1.00;106202;1259;1008912;-77
2023/06/12 09:04:13;;;;;;;6.30;2.00;;;;;;;-128.00;-1.00;-1.00;106268;1260;1011575;-74
2023/06/12 09:07:03;;;;;;;8.40;1.70;;;;;;;-128.00;-1.00;-1.00;106280;1260;1013490;-75
2023/06/12 09:09:50;;;;;;;8.80;1.90;;;;;;;-128.00;-1.00;-1.00;106275;1259;1013551;-77
2023/06/12 09:12:42;;;;;;;7.80;1.80;;;;;;;-128.00;-1.00;-1.00;106293;1259;1012932;-79
2023/06/12 09:15:29;;;;;;;9.10;2.00;;;;;;;-128.00;-1.00;-1.00;106257;1259;1009771;-77
2023/06/12 09:18:19;;;;;;;10.30;1.90;;;;;;;-128.00;-1.00;-1.00;106222;1259;1011622;-75
2023/06/12 09:21:07;;;;;;;7.90;1.50;;;;;;;-128.00;-1.00;-1.00;106053;1264;1013991;-73
2023/06/12 09:23:55;;;;;;;7.40;1.60;;;;;;;-128.00;-1.00;-1.00;106101;1264;1012871;-74
2023/06/12 09:26:42;;;;;;;7.30;1.70;;;;;;;-128.00;-1.00;-1.00;106045;1264;1012669;-79
2023/06/12 09:29:32;;;;;;;7.80;1.60;;;;;;;-128.00;-1.00;-1.00;105952;1264;1010235;-75
2023/06/12 09:32:19;;;;;;;8.30;2.20;;;;;;;-128.00;-1.00;-1.00;106258;1259;1011320;-73
2023/06/12 09:35:06;;;;;;;9.20;1.90;;;;;;;-128.00;-1.00;-1.00;106360;1259;1012013;-76
2023/06/12 09:37:57;;;;;;;8.00;1.60;;;;;;;-128.00;-1.00;-1.00;106300;1258;1012492;-77
2023/06/12 09:40:55;;;;;;;7.20;1.50;;;;;;;-128.00;-1.00;-1.00;106356;1258;1012712;-79
2023/06/12 09:43:42;;;;;;;8.00;1.60;;;;;;;-128.00;-1.00;-1.00;106305;1262;1009247;-74
2023/06/12 09:46:30;;;;;;;7.00;1.60;;;;;;;-128.00;-1.00;-1.00;106350;1258;1011510;-77
2023/06/12 09:49:24;;;;;;;9.30;1.50;;;;;;;-128.00;-1.00;-1.00;106362;1258;1012098;-75
2023/06/12 09:52:12;;;;;;;7.60;1.50;;;;;;;-128.00;-1.00;-1.00;106408;1259;1012810;-77
2023/06/12 09:55:03;;;;;;;7.90;1.50;;;;;;;-128.00;-1.00;-1.00;106542;1255;1013522;-75
2023/06/12 09:57:52;;;;;;;7.20;1.50;;;;;;;-128.00;-1.00;-1.00;106486;1254;1010532;-75
2023/06/12 10:00:39;;;;;;;7.70;1.40;;;;;;;-128.00;-1.00;-1.00;106462;1254;1011162;-74
2023/06/12 10:03:28;;;;;;;10.80;2.00;;;;;;;-128.00;-1.00;-1.00;106529;1254;1012891;-74
2023/06/12 10:06:17;;;;;;;8.10;1.90;;;;;;;-128.00;-1.00;-1.00;106526;1254;1012407;-76
2023/06/12 10:09:06;;;;;;;8.90;1.90;;;;;;;-128.00;-1.00;-1.00;106527;1254;1012935;-78
2023/06/12 10:11:52;;;;;;;6.90;1.70;;;;;;;-128.00;-1.00;-1.00;106495;1254;1011124;-77
2023/06/12 10:14:41;;;;;;;6.70;1.40;;;;;;;-128.00;-1.00;-1.00;106674;1254;1011168;-73
2023/06/12 10:17:29;;;;;;;6.70;1.60;;;;;;;-128.00;-1.00;-1.00;106421;1255;1012306;-77
2023/06/12 10:20:20;;;;;;;6.80;2.00;;;;;;;-128.00;-1.00;-1.00;106599;1253;1013312;-72
2023/06/12 10:23:08;;;;;;;6.00;1.60;;;;;;;-128.00;-1.00;-1.00;106512;1254;1012822;-73
2023/06/12 10:25:57;;;;;;;8.70;1.70;;;;;;;-128.00;-1.00;-1.00;106426;1254;1010325;-75
2023/06/12 10:28:44;;;;;;;7.90;1.50;;;;;;;-128.00;-1.00;-1.00;106528;1254;1011293;-74
2023/06/12 10:31:32;;;;;;;5.70;1.60;;;;;;;-128.00;-1.00;-1.00;106265;1254;1012139;-73
2023/06/12 10:34:20;;;;;;;8.20;1.60;;;;;;;-128.00;-1.00;-1.00;106532;1255;1013080;-74
2023/06/12 10:37:46;;;;;;;8.90;1.90;;;;;;;-128.00;-1.00;-1.00;106518;1254;1013140;-75
2023/06/12 10:40:33;;;;;;;7.10;1.80;;;;;;;-128.00;-1.00;-1.00;106487;1254;1010072;-77
2023/06/12 10:43:35;;;;;;;8.60;1.90;;;;;;;-128.00;-1.00;-1.00;106473;1254;1011201;-74
2023/06/12 10:46:46;;;;;;;6.50;1.70;;;;;;;-128.00;-1.00;-1.00;106634;1254;1011685;-73
2023/06/12 10:50:00;;;;;;;7.10;1.70;;;;;;;-128.00;-1.00;-1.00;106519;1259;1012077;-74
2023/06/12 10:52:55;;;;;;;8.40;1.40;;;;;;;-128.00;-1.00;-1.00;106613;1254;1013038;-74
2023/06/12 10:55:43;;;;;;;6.80;1.50;;;;;;;-128.00;-1.00;-1.00;106703;1254;1009559;-71
2023/06/12 10:58:41;;;;;;;7.20;1.40;;;;;;;-128.00;-1.00;-1.00;106631;1254;1010957;-74
2023/06/12 11:01:39;;;;;;;6.70;1.60;;;;;;;-128.00;-1.00;-1.00;106543;1255;1012493;-72
2023/06/12 11:04:25;;;;;;;6.20;1.60;;;;;;;-128.00;-1.00;-1.00;106650;1258;1012821;-74
2023/06/12 11:07:15;;;;;;;5.90;1.40;;;;;;;-128.00;-1.00;-1.00;106558;1254;1012849;-73
2023/06/12 11:10:09;;;;;;;7.00;1.40;;;;;;;-128.00;-1.00;-1.00;106624;1254;1009133;-71
2023/06/12 11:12:57;;;;;;;6.20;1.40;;;;;;;-128.00;-1.00;-1.00;106525;1255;1010336;-73
2023/06/12 11:15:46;;;;;;;6.40;1.40;;;;;;;-128.00;-1.00;-1.00;106637;1254;1013524;-74
2023/06/12 11:18:32;;;;;;;7.60;1.50;;;;;;;-128.00;-1.00;-1.00;106797;1256;1013039;-73
2023/06/12 11:21:21;;;;;;;9.70;1.50;;;;;;;-128.00;-1.00;-1.00;106565;1254;1012598;-73
2023/06/12 11:24:10;;;;;;;8.90;1.40;;;;;;;-128.00;-1.00;-1.00;106484;1254;1009219;-74
2023/06/12 11:27:00;;;;;;;7.50;1.50;;;;;;;-128.00;-1.00;-1.00;106474;1254;1010919;-71
2023/06/12 11:29:46;;;;;;;6.80;1.70;;;;;;;-128.00;-1.00;-1.00;106616;1254;1013515;-72
2023/06/12 11:32:51;;;;;;;5.50;1.30;;;;;;;-128.00;-1.00;-1.00;106556;1259;1012292;-71
2023/06/12 11:35:40;;;;;;;5.60;1.50;;;;;;;-128.00;-1.00;-1.00;106475;1256;1012772;-70
2023/06/12 11:38:27;;;;;;;8.90;1.70;;;;;;;-128.00;-1.00;-1.00;106609;1255;1009259;-73
2023/06/12 11:41:17;;;;;;;6.70;1.40;;;;;;;-128.00;-1.00;-1.00;106483;1255;1011147;-72
2023/06/12 11:44:05;;;;;;;8.60;1.60;;;;;;;-128.00;-1.00;-1.00;106570;1254;1012832;-71
2023/06/12 11:46:52;;;;;;;8.60;1.40;;;;;;;-128.00;-1.00;-1.00;106550;1254;1011839;-71
2023/06/12 11:49:39;;;;;;;6.50;1.70;;;;;;;-128.00;-1.00;-1.00;106559;1257;1012342;-69
2023/06/12 11:52:26;;;;;;;5.80;1.60;;;;;;;-128.00;-1.00;-1.00;106601;1255;1009758;-69
2023/06/12 11:55:17;;;;;;;6.30;1.70;;;;;;;-128.00;-1.00;-1.00;106542;1254;1011218;-71
2023/06/12 11:58:06;;;;;;;8.90;1.70;;;;;;;-128.00;-1.00;-1.00;106442;1256;1013835;-71
2023/06/12 12:00:56;;;;;;;7.40;1.80;;;;;;;-128.00;-1.00;-1.00;106546;1259;1012344;-72
2023/06/12 12:03:46;;;;;;;5.80;1.70;;;;;;;-128.00;-1.00;-1.00;106506;1254;1012363;-70
2023/06/12 12:06:50;;;;;;;7.40;1.90;;;;;;;-128.00;-1.00;-1.00;106613;1254;1009217;-74
2023/06/12 12:09:38;;;;;;;7.10;1.60;;;;;;;-128.00;-1.00;-1.00;106576;1254;1010476;-69
2023/06/12 12:12:24;;;;;;;7.00;1.70;;;;;;;-128.00;-1.00;-1.00;106597;1255;1012665;-70
2023/06/12 12:15:14;;;;;;;6.00;1.60;;;;;;;-128.00;-1.00;-1.00;106660;1259;1012900;-69
2023/06/12 12:18:01;;;;;;;8.00;1.60;;;;;;;-128.00;-1.00;-1.00;106849;1254;1012842;-73
2023/06/12 12:20:49;;;;;;;6.50;2.00;;;;;;;-128.00;-1.00;-1.00;106334;1259;1009050;-71
2023/06/12 12:23:36;;;;;;;7.20;1.60;;;;;;;-128.00;-1.00;-1.00;106270;1259;1010792;-71
2023/06/12 12:26:25;;;;;;;7.70;1.90;;;;;;;-128.00;-1.00;-1.00;106222;1259;1012229;-73
2023/06/12 12:29:12;;;;;;;8.30;1.80;;;;;;;-128.00;-1.00;-1.00;106232;1259;1013237;-74
2023/06/12 12:31:59;;;;;;;7.10;1.40;;;;;;;-128.00;-1.00;-1.00;106294;1259;1012649;-70
2023/06/12 12:34:46;;;;;;;5.60;1.60;;;;;;;-128.00;-1.00;-1.00;106320;1259;1009619;-73
2023/06/12 12:37:33;;;;;;;8.30;1.80;;;;;;;-128.00;-1.00;-1.00;106261;1259;1010968;-74
2023/06/12 12:40:23;;;;;;;6.70;1.60;;;;;;;-128.00;-1.00;-1.00;106266;1259;1013400;-72
2023/06/12 12:43:10;;;;;;;10.00;2.00;;;;;;;-128.00;-1.00;-1.00;106286;1259;1011883;-71
2023/06/12 12:45:57;;;;;;;7.00;1.90;;;;;;;-128.00;-1.00;-1.00;106216;1259;1012979;-70
2023/06/12 12:48:43;;;;;;;5.60;1.90;;;;;;;-128.00;-1.00;-1.00;106214;1259;1010001;-68
2023/06/12 12:51:32;;;;;;;6.70;1.80;;;;;;;-128.00;-1.00;-1.00;106421;1254;1010374;-71
2023/06/12 12:54:19;;;;;;;12.10;6.60;;;;;;;-128.00;-1.00;-1.00;106293;1259;1012606;-70
2023/06/12 12:57:07;;;;;;;8.40;2.60;;;;;;;-128.00;-1.00;-1.00;106287;1259;1012977;-67